Time;durP1;ratioP1;P1;durP2;ratioP2;P2;SDS_P1;SDS_P2;PMS_P1;PMS_P2;Temp;Humidity;BMP_temperature;BMP_pressure;BME280_temperature;BME280_humidity;BME280_pressure;Samples;Min_cycle;Max_cycle;Signal;HPM_P1;HPM_P2
2023/03/27 00:00:49;;;;;;;0.63;0.60;;;8.20;99.90;;;;;;5094815;28;20031;-76
2023/03/27 00:03:16;;;;;;;0.40;0.40;;;8.20;99.90;;;;;;5077707;28;20452;-77
2023/03/27 00:05:43;;;;;;;1.05;0.60;;;8.20;99.90;;;;;;5077036;28;20043;-77
2023/03/27 00:08:09;;;;;;;0.60;0.60;;;8.20;99.90;;;;;;5095374;28;20028;-77
2023/03/27 00:10:35;;;;;;;1.10;0.68;;;8.20;99.90;;;;;;5076889;28;20024;-78
2023/03/27 00:13:04;;;;;;;0.68;0.57;;;8.20;99.90;;;;;;5095426;28;20034;-77
2023/03/27 00:15:31;;;;;;;0.82;0.70;;;8.20;99.90;;;;;;5076901;28;20067;-76
2023/03/27 00:18:02;;;;;;;0.73;0.50;;;8.20;99.90;;;;;;5077455;28;20024;-77
2023/03/27 00:20:35;;;;;;;0.95;0.60;;;8.20;99.90;;;;;;5095273;28;20020;-77
2023/03/27 00:23:02;;;;;;;1.20;0.68;;;8.20;99.90;;;;;;5095156;28;20031;-77
2023/03/27 00:25:28;;;;;;;1.58;0.60;;;8.20;99.90;;;;;;5076608;28;20039;-77
2023/03/27 00:27:58;;;;;;;2.83;0.73;;;8.20;99.90;;;;;;5094905;28;20039;-77
2023/03/27 00:30:25;;;;;;;1.35;0.60;;;8.20;99.90;;;;;;5082234;28;20384;-77
2023/03/27 00:32:54;;;;;;;2.28;0.70;;;8.20;99.90;;;;;;5083910;28;20060;-78
2023/03/27 00:35:20;;;;;;;0.70;0.60;;;8.20;99.90;;;;;;5111218;28;20020;-77
2023/03/27 00:37:46;;;;;;;1.85;0.68;;;8.20;99.90;;;;;;5084181;28;20016;-77
2023/03/27 00:40:17;;;;;;;1.25;0.70;;;8.20;99.90;;;;;;5096916;28;20130;-75
2023/03/27 00:42:48;;;;;;;1.23;0.68;;;8.20;99.90;;;;;;5098433;28;20081;-76
2023/03/27 00:45:23;;;;;;;1.02;0.85;;;8.10;99.90;;;;;;5080180;28;20111;-76
2023/03/27 00:47:53;;;;;;;1.35;1.00;;;8.10;99.90;;;;;;5073821;28;20078;-76
2023/03/27 00:50:24;;;;;;;1.40;1.10;;;8.10;99.90;;;;;;5056744;28;20074;-76
2023/03/27 00:52:57;;;;;;;3.22;1.35;;;8.10;99.90;;;;;;5056167;28;20115;-76
2023/03/27 00:55:27;;;;;;;3.15;1.73;;;8.00;99.90;;;;;;5056692;28;20460;-76
2023/03/27 00:58:03;;;;;;;4.22;1.80;;;8.00;99.90;;;;;;5073661;28;20174;-77
2023/03/27 01:00:31;;;;;;;4.97;2.05;;;8.00;99.90;;;;;;5056676;28;20024;-76
2023/03/27 01:02:57;;;;;;;6.22;2.10;;;8.00;99.90;;;;;;5056057;28;20090;-76
2023/03/27 01:05:23;;;;;;;6.20;1.95;;;7.90;99.90;;;;;;5056189;28;20043;-76
2023/03/27 01:07:50;;;;;;;5.45;2.30;;;7.90;99.90;;;;;;5073477;28;20191;-77
2023/03/27 01:10:16;;;;;;;4.32;2.40;;;7.80;99.90;;;;;;5073963;28;20028;-75
2023/03/27 01:13:11;;;;;;;5.25;2.20;;;7.80;99.90;;;;;;5055353;28;20059;-76
2023/03/27 01:15:45;;;;;;;4.13;2.50;;;7.80;99.90;;;;;;5055194;28;20068;-76
2023/03/27 01:18:36;;;;;;;9.35;2.65;;;7.80;99.90;;;;;;5073980;28;20017;-76
2023/03/27 01:21:11;;;;;;;5.43;2.28;;;7.70;99.90;;;;;;5056340;28;20127;-76
2023/03/27 01:23:51;;;;;;;5.63;2.65;;;7.70;99.90;;;;;;5055407;28;20082;-76
2023/03/27 01:26:56;;;;;;;8.55;2.45;;;7.70;99.90;;;;;;5056064;28;20071;-76
2023/03/27 01:29:52;;;;;;;4.88;2.20;;;7.60;99.90;;;;;;5055924;28;20028;-76
2023/03/27 01:32:52;;;;;;;9.40;2.30;;;7.50;99.90;;;;;;5055875;28;20081;-76
2023/03/27 01:35:36;;;;;;;6.38;2.35;;;7.50;99.90;;;;;;5055941;28;20082;-77
2023/03/27 01:38:39;;;;;;;6.47;2.25;;;7.50;99.90;;;;;;5055818;28;20039;-76
2023/03/27 01:41:23;;;;;;;6.07;1.80;;;7.40;99.90;;;;;;5055408;28;20021;-75
2023/03/27 01:44:02;;;;;;;8.40;1.98;;;7.40;99.90;;;;;;5054688;28;20056;-75
2023/03/27 01:46:40;;;;;;;7.30;2.42;;;7.40;99.90;;;;;;5055232;28;20028;-75
2023/03/27 01:49:33;;;;;;;4.07;1.52;;;7.40;99.90;;;;;;5055534;28;20108;-75
2023/03/27 01:52:04;;;;;;;7.22;1.90;;;7.30;99.90;;;;;;5054677;28;20123;-75
2023/03/27 01:54:37;;;;;;;5.18;1.80;;;7.30;99.90;;;;;;5055264;28;20045;-75
2023/03/27 01:57:07;;;;;;;5.38;1.60;;;7.30;99.90;;;;;;5073204;28;20062;-75
2023/03/27 01:59:37;;;;;;;7.50;1.42;;;7.20;99.90;;;;;;5073140;28;20029;-75
2023/03/27 02:02:10;;;;;;;7.13;1.50;;;7.20;99.90;;;;;;5055290;28;20021;-75
2023/03/27 02:04:53;;;;;;;8.23;1.40;;;7.20;99.90;;;;;;5055039;28;20033;-75
2023/03/27 02:07:27;;;;;;;6.50;1.50;;;7.20;99.90;;;;;;5055283;28;20017;-75
2023/03/27 02:09:57;;;;;;;9.98;1.40;;;7.20;99.90;;;;;;5054957;28;20082;-75
2023/03/27 02:12:32;;;;;;;5.63;1.55;;;7.20;99.90;;;;;;5073121;28;20017;-74
2023/03/27 02:15:14;;;;;;;10.25;1.65;;;7.20;99.90;;;;;;5054428;28;20079;-77
2023/03/27 02:17:51;;;;;;;5.88;1.58;;;7.20;99.90;;;;;;5054788;28;20021;-78
2023/03/27 02:20:16;;;;;;;6.32;1.70;;;7.10;99.90;;;;;;5055329;28;20031;-78
2023/03/27 02:22:44;;;;;;;10.43;1.58;;;7.10;99.90;;;;;;5054829;28;20462;-78
2023/03/27 02:25:44;;;;;;;8.23;1.67;;;7.00;99.90;;;;;;5073258;28;20024;-77
2023/03/27 02:28:38;;;;;;;9.20;1.40;;;7.00;99.90;;;;;;5021859;28;20037;-78
2023/03/27 02:31:38;;;;;;;5.53;1.77;;;7.00;99.90;;;;;;5077152;28;20024;-78
2023/03/27 02:34:31;;;;;;;5.70;1.13;;;7.00;99.90;;;;;;5058836;28;20495;-77
2023/03/27 02:37:03;;;;;;;5.25;1.10;;;7.00;99.90;;;;;;5076488;28;20025;-77
2023/03/27 02:39:37;;;;;;;3.75;1.00;;;7.00;99.90;;;;;;5059103;28;20040;-78
2023/03/27 02:42:25;;;;;;;2.93;0.93;;;7.00;99.90;;;;;;5058687;28;20087;-77
2023/03/27 02:45:21;;;;;;;3.47;1.40;;;7.00;99.90;;;;;;5086709;28;20067;-77
2023/03/27 02:48:03;;;;;;;7.37;1.00;;;7.00;99.90;;;;;;5078677;28;20032;-77
2023/03/27 02:50:43;;;;;;;5.93;1.20;;;6.90;99.90;;;;;;5096959;28;20028;-77
2023/03/27 02:53:12;;;;;;;6.70;1.50;;;6.90;99.90;;;;;;5079109;28;20539;-77
2023/03/27 02:55:43;;;;;;;6.77;1.27;;;6.90;99.90;;;;;;5096802;28;20028;-78
2023/03/27 02:58:16;;;;;;;4.87;1.10;;;6.90;99.90;;;;;;5078982;28;20028;-77
2023/03/27 03:00:47;;;;;;;5.90;0.93;;;6.80;99.90;;;;;;5078335;28;20389;-78
2023/03/27 03:03:18;;;;;;;8.60;1.30;;;6.80;99.90;;;;;;5078745;28;20566;-77
2023/03/27 03:05:44;;;;;;;3.70;0.82;;;6.80;99.90;;;;;;5096195;28;20032;-78
2023/03/27 03:08:10;;;;;;;5.23;0.90;;;6.70;99.90;;;;;;5078759;28;20034;-77
2023/03/27 03:10:42;;;;;;;8.17;1.13;;;6.70;99.90;;;;;;5078538;28;20115;-78
2023/03/27 03:13:08;;;;;;;3.90;0.90;;;6.70;99.90;;;;;;5096531;28;20020;-77
2023/03/27 03:15:34;;;;;;;6.63;1.07;;;6.70;99.90;;;;;;5078465;28;20040;-77
2023/03/27 03:17:59;;;;;;;9.23;1.10;;;6.60;99.90;;;;;;5078160;28;20475;-77
2023/03/27 03:20:28;;;;;;;5.87;1.07;;;6.50;99.90;;;;;;5078453;28;20024;-77
2023/03/27 03:22:55;;;;;;;8.83;1.43;;;6.40;99.90;;;;;;5077334;28;20050;-77
2023/03/27 03:25:20;;;;;;;8.10;1.20;;;6.40;99.90;;;;;;5078053;28;20036;-77
2023/03/27 03:27:46;;;;;;;7.43;1.10;;;6.40;99.90;;;;;;5077438;28;20115;-77
2023/03/27 03:30:12;;;;;;;7.40;0.93;;;6.30;99.90;;;;;;5078144;28;20031;-77
2023/03/27 03:32:38;;;;;;;11.70;1.13;;;6.30;99.90;;;;;;5077649;28;20034;-77
2023/03/27 03:35:04;;;;;;;4.07;1.27;;;6.10;99.90;;;;;;5077489;28;20123;-77
2023/03/27 03:37:37;;;;;;;9.97;1.47;;;6.00;99.90;;;;;;5077668;28;20063;-77
2023/03/27 03:40:10;;;;;;;10.03;1.33;;;5.90;99.90;;;;;;5077454;28;20047;-78
2023/03/27 03:42:42;;;;;;;6.03;1.13;;;5.80;99.90;;;;;;5096051;28;20020;-78
2023/03/27 03:45:08;;;;;;;;;;;5.80;99.90;;;;;;5088171;28;20044;-77
2023/03/27 03:47:33;;;;;;;4.67;0.80;;;5.70;99.90;;;;;;5094771;28;19904;-77
2023/03/27 03:49:59;;;;;;;6.93;1.10;;;5.70;99.90;;;;;;5094027;28;20024;-77
2023/03/27 03:52:26;;;;;;;9.50;1.20;;;5.60;99.90;;;;;;5094467;28;20115;-78
2023/03/27 03:54:51;;;;;;;8.83;1.07;;;5.60;99.90;;;;;;5094004;28;20028;-77
2023/03/27 03:57:17;;;;;;;4.93;0.90;;;5.50;99.90;;;;;;5094737;28;20529;-78
2023/03/27 03:59:43;;;;;;;5.97;1.23;;;5.50;99.90;;;;;;5094621;28;20020;-78
2023/03/27 04:02:11;;;;;;;3.20;0.70;;;5.50;99.90;;;;;;5095322;28;20453;-78
2023/03/27 04:04:37;;;;;;;8.63;1.23;;;5.50;99.90;;;;;;5094369;28;20081;-78
2023/03/27 04:07:04;;;;;;;3.53;0.83;;;5.50;99.90;;;;;;5094027;28;20035;-77
2023/03/27 04:09:30;;;;;;;6.23;0.90;;;5.40;99.90;;;;;;5094179;28;20024;-77
2023/03/27 04:11:55;;;;;;;12.33;1.90;;;5.40;99.90;;;;;;5093916;28;20027;-76
2023/03/27 04:14:21;;;;;;;7.17;1.27;;;5.40;99.90;;;;;;5094124;28;20028;-77
2023/03/27 04:16:46;;;;;;;5.77;0.93;;;5.30;99.90;;;;;;5093535;28;20020;-78
2023/03/27 04:19:12;;;;;;;5.20;1.20;;;5.30;99.90;;;;;;5094263;28;20453;-77
2023/03/27 04:21:38;;;;;;;6.80;1.30;;;5.20;99.90;;;;;;5094317;28;20025;-77
2023/03/27 04:24:03;;;;;;;3.93;0.90;;;5.30;99.90;;;;;;5093455;28;20035;-77
2023/03/27 04:26:29;;;;;;;12.90;1.30;;;5.20;99.90;;;;;;5093364;28;20488;-77
2023/03/27 04:28:55;;;;;;;8.03;1.70;;;5.20;99.90;;;;;;5093682;28;20068;-79
2023/03/27 04:31:20;;;;;;;6.63;1.13;;;5.20;99.90;;;;;;5093772;28;20488;-79
2023/03/27 04:33:51;;;;;;;14.37;1.70;;;5.20;99.90;;;;;;5093541;28;20028;-80
2023/03/27 04:36:17;;;;;;;6.07;1.00;;;5.20;99.90;;;;;;5094133;28;20024;-79
2023/03/27 04:38:43;;;;;;;6.70;1.10;;;5.20;99.90;;;;;;5093835;28;20531;-78
2023/03/27 04:41:08;;;;;;;6.83;0.93;;;5.20;99.90;;;;;;5094162;28;20028;-78
2023/03/27 04:43:40;;;;;;;7.87;1.20;;;5.20;99.90;;;;;;5093498;28;20024;-78
2023/03/27 04:46:06;;;;;;;6.32;0.90;;;5.20;99.90;;;;;;5076106;28;20469;-77
2023/03/27 04:48:32;;;;;;;6.43;1.03;;;5.20;99.90;;;;;;5076994;28;20063;-76
2023/03/27 04:50:58;;;;;;;7.87;1.10;;;5.20;99.90;;;;;;5093316;28;20020;-76
2023/03/27 04:53:29;;;;;;;3.77;1.07;;;5.10;99.90;;;;;;5076625;28;20031;-76
2023/03/27 04:55:56;;;;;;;6.50;0.90;;;5.20;99.90;;;;;;5076553;28;20063;-76
2023/03/27 04:58:24;;;;;;;7.57;1.10;;;5.20;99.90;;;;;;5094656;28;20024;-76
2023/03/27 05:00:54;;;;;;;2.20;0.70;;;5.20;99.90;;;;;;5075964;28;20032;-76
2023/03/27 05:03:19;;;;;;;5.83;1.20;;;5.30;99.90;;;;;;5076504;28;20024;-76
2023/03/27 05:05:49;;;;;;;9.97;1.20;;;5.20;99.90;;;;;;5094149;28;20158;-76
2023/03/27 05:08:15;;;;;;;9.43;1.17;;;5.30;99.90;;;;;;5076356;28;20468;-75
2023/03/27 05:10:42;;;;;;;7.97;1.33;;;5.20;99.90;;;;;;5076473;28;20488;-76
2023/03/27 05:13:07;;;;;;;3.13;0.90;;;5.20;99.90;;;;;;5075745;28;20212;-76
2023/03/27 05:15:34;;;;;;;6.63;0.90;;;5.20;99.90;;;;;;5094222;28;20040;-76
2023/03/27 05:17:59;;;;;;;4.07;0.87;;;5.20;99.90;;;;;;5075575;28;20077;-76
2023/03/27 05:20:26;;;;;;;3.60;0.90;;;5.20;99.90;;;;;;5093988;28;20028;-76
2023/03/27 05:22:53;;;;;;;6.90;1.07;;;5.20;99.90;;;;;;5075422;28;20032;-76
2023/03/27 05:25:19;;;;;;;4.80;0.87;;;5.20;99.90;;;;;;5075932;28;20032;-76
2023/03/27 05:27:47;;;;;;;4.10;0.87;;;5.20;99.90;;;;;;5093920;28;20070;-76
2023/03/27 05:30:15;;;;;;;4.60;0.90;;;5.20;99.90;;;;;;5075247;28;20028;-76
2023/03/27 05:32:47;;;;;;;4.67;0.90;;;5.20;99.90;;;;;;5075787;28;20358;-75
2023/03/27 05:35:21;;;;;;;7.07;0.82;;;5.20;99.90;;;;;;5075320;28;20369;-75
2023/03/27 05:37:51;;;;;;;2.87;0.70;;;5.20;99.90;;;;;;5075935;28;20381;-75
2023/03/27 05:40:21;;;;;;;4.93;0.73;;;5.00;99.90;;;;;;5075666;28;20111;-77
2023/03/27 05:42:48;;;;;;;6.70;0.73;;;5.10;99.90;;;;;;5075573;28;20024;-77
2023/03/27 05:45:14;;;;;;;5.07;0.90;;;5.10;99.90;;;;;;5085430;28;20489;-77
2023/03/27 05:47:57;;;;;;;5.67;0.60;;;5.20;99.90;;;;;;5092179;28;20059;-76
2023/03/27 05:50:32;;;;;;;6.40;0.90;;;5.20;99.90;;;;;;5092556;28;20123;-77
2023/03/27 05:53:07;;;;;;;5.43;0.80;;;5.20;99.90;;;;;;5091866;28;20031;-77
2023/03/27 05:55:33;;;;;;;8.73;1.10;;;5.20;99.90;;;;;;5092171;28;20063;-77
2023/03/27 05:57:59;;;;;;;5.10;0.73;;;5.10;99.90;;;;;;5091884;28;20040;-76
2023/03/27 06:00:26;;;;;;;5.07;0.80;;;5.10;99.90;;;;;;5093430;28;20475;-76
2023/03/27 06:02:57;;;;;;;4.00;0.73;;;5.10;99.90;;;;;;5095858;28;20032;-79
2023/03/27 06:05:24;;;;;;;5.03;1.10;;;5.20;99.90;;;;;;5096165;28;20061;-76
2023/03/27 06:07:50;;;;;;;3.97;0.80;;;5.20;99.90;;;;;;5087660;28;20100;-76
2023/03/27 06:10:17;;;;;;;7.73;0.90;;;5.20;99.90;;;;;;5075429;28;20047;-76
2023/03/27 06:12:43;;;;;;;4.20;0.90;;;5.20;99.90;;;;;;5076272;28;20025;-76
2023/03/27 06:15:10;;;;;;;4.90;1.00;;;5.10;99.90;;;;;;5076342;28;20028;-76
2023/03/27 06:17:38;;;;;;;4.33;0.90;;;5.10;99.90;;;;;;5077221;28;20058;-76
2023/03/27 06:20:14;;;;;;;4.50;0.80;;;5.00;99.90;;;;;;5076701;28;20025;-76
2023/03/27 06:22:58;;;;;;;1.50;0.77;;;5.00;99.90;;;;;;5076055;28;20036;-76
2023/03/27 06:25:25;;;;;;;7.03;0.90;;;5.00;99.90;;;;;;5077164;28;20031;-76
2023/03/27 06:27:51;;;;;;;6.80;1.10;;;5.00;99.90;;;;;;5084951;28;20056;-76
2023/03/27 06:30:22;;;;;;;3.87;1.03;;;5.10;99.90;;;;;;5096474;28;20454;-76
2023/03/27 06:32:50;;;;;;;4.13;0.90;;;5.10;99.90;;;;;;5096979;28;20028;-75
2023/03/27 06:35:17;;;;;;;10.07;1.20;;;5.10;99.90;;;;;;5096477;28;20097;-76
2023/03/27 06:37:45;;;;;;;2.97;1.00;;;5.10;99.90;;;;;;5096955;28;20035;-75
2023/03/27 06:40:19;;;;;;;6.57;1.00;;;5.20;99.90;;;;;;5094953;28;20469;-76
2023/03/27 06:42:53;;;;;;;5.17;0.83;;;5.20;99.90;;;;;;5095852;28;20034;-76
2023/03/27 06:45:21;;;;;;;3.17;0.70;;;5.20;99.90;;;;;;5095049;28;20087;-76
2023/03/27 06:47:55;;;;;;;12.53;1.17;;;5.10;99.90;;;;;;5095653;28;20024;-75
2023/03/27 06:50:22;;;;;;;5.43;1.00;;;5.20;99.90;;;;;;5096423;28;20024;-77
2023/03/27 06:52:47;;;;;;;7.27;1.13;;;5.10;99.90;;;;;;5096390;28;20062;-76
2023/03/27 06:55:14;;;;;;;3.03;0.90;;;5.20;99.90;;;;;;5094492;28;20028;-77
2023/03/27 06:57:48;;;;;;;6.30;1.03;;;5.20;99.90;;;;;;5096111;28;20055;-76
2023/03/27 07:00:19;;;;;;;8.77;1.27;;;5.30;99.90;;;;;;5095274;28;20024;-77
2023/03/27 07:02:45;;;;;;;8.57;0.83;;;5.30;99.90;;;;;;5095062;28;20024;-77
2023/03/27 07:05:13;;;;;;;5.10;0.93;;;5.40;99.90;;;;;;5094329;28;20028;-77
2023/03/27 07:07:39;;;;;;;5.13;0.90;;;5.30;99.90;;;;;;5094807;28;20024;-77
2023/03/27 07:10:05;;;;;;;5.43;1.20;;;5.40;99.90;;;;;;5094406;28;20031;-77
2023/03/27 07:12:30;;;;;;;8.27;1.00;;;5.40;99.90;;;;;;5073989;28;20066;-77
2023/03/27 07:14:56;;;;;;;4.30;0.70;;;5.40;99.90;;;;;;5074015;28;20109;-77
2023/03/27 07:17:22;;;;;;;11.33;3.60;;;5.30;99.90;;;;;;5086271;28;20961;-78
2023/03/27 07:19:48;;;;;;;10.23;3.70;;;5.30;99.90;;;;;;5095360;28;20016;-77
2023/03/27 07:22:13;;;;;;;11.13;2.50;;;5.20;99.90;;;;;;5096500;28;20362;-77
2023/03/27 07:24:40;;;;;;;7.07;1.00;;;5.10;99.90;;;;;;5099332;28;20028;-77
2023/03/27 07:27:06;;;;;;;5.73;1.17;;;5.10;99.90;;;;;;5094169;28;20102;-76
2023/03/27 07:29:32;;;;;;;4.47;0.90;;;5.20;99.90;;;;;;5109341;28;20031;-78
2023/03/27 07:31:58;;;;;;;4.67;1.20;;;5.20;99.90;;;;;;5097026;28;20028;-78
2023/03/27 07:34:24;;;;;;;5.63;0.90;;;5.30;99.90;;;;;;5099503;28;20514;-77
2023/03/27 07:36:49;;;;;;;5.33;0.87;;;5.30;99.90;;;;;;5096500;28;20086;-78
2023/03/27 07:39:15;;;;;;;7.27;1.10;;;5.40;99.90;;;;;;5095892;28;20022;-78
2023/03/27 07:41:41;;;;;;;5.03;0.90;;;5.50;99.90;;;;;;5095018;28;20480;-77
2023/03/27 07:44:07;;;;;;;4.77;1.10;;;5.50;99.90;;;;;;5098383;28;20087;-77
2023/03/27 07:46:33;;;;;;;4.07;0.70;;;5.60;99.90;;;;;;5096653;28;20032;-77
2023/03/27 07:48:58;;;;;;;9.80;1.33;;;5.60;99.90;;;;;;5097030;28;20031;-77
2023/03/27 07:51:24;;;;;;;8.27;1.33;;;5.50;99.90;;;;;;5096311;28;20028;-77
2023/03/27 07:53:55;;;;;;;4.53;1.17;;;5.40;99.90;;;;;;5096062;28;20032;-77
2023/03/27 07:56:22;;;;;;;8.07;1.13;;;5.40;99.90;;;;;;5096193;28;20106;-78
2023/03/27 07:58:48;;;;;;;3.57;1.03;;;5.40;99.90;;;;;;5096519;28;20028;-77
2023/03/27 08:01:13;;;;;;;8.63;1.30;;;5.40;99.90;;;;;;5094625;28;20031;-79
2023/03/27 08:03:39;;;;;;;6.93;2.10;;;5.50;99.90;;;;;;5094025;28;20385;-78
2023/03/27 08:06:06;;;;;;;3.53;1.20;;;5.50;99.90;;;;;;5097463;28;20059;-78
2023/03/27 08:08:32;;;;;;;4.10;1.10;;;5.50;99.90;;;;;;5097203;28;20020;-77
2023/03/27 08:11:01;;;;;;;8.53;1.73;;;5.50;99.90;;;;;;5093038;28;20024;-79
2023/03/27 08:13:27;;;;;;;6.77;1.13;;;5.50;99.90;;;;;;5094164;28;20465;-77
2023/03/27 08:16:28;;;;;;;6.77;0.80;;;5.60;99.90;;;;;;5095649;28;20143;-76
2023/03/27 08:18:54;;;;;;;5.77;1.00;;;5.60;99.90;;;;;;5046355;28;20035;-77
2023/03/27 08:21:20;;;;;;;8.73;1.03;;;5.60;99.90;;;;;;5093729;28;20096;-77
2023/03/27 08:23:46;;;;;;;5.13;1.20;;;5.60;99.90;;;;;;5093626;28;20442;-77
2023/03/27 08:26:13;;;;;;;3.43;0.87;;;5.70;99.90;;;;;;5094165;28;20027;-80
2023/03/27 08:28:39;;;;;;;6.03;0.87;;;5.60;99.90;;;;;;5091387;28;20020;-76
2023/03/27 08:31:14;;;;;;;8.43;0.83;;;5.70;99.90;;;;;;5095177;28;20028;-79
2023/03/27 08:33:41;;;;;;;6.33;1.00;;;5.70;99.90;;;;;;5092132;28;20027;-78
2023/03/27 08:36:08;;;;;;;5.20;0.97;;;5.80;99.90;;;;;;5097292;28;20019;-78
2023/03/27 08:38:34;;;;;;;9.93;0.87;;;5.90;99.90;;;;;;5096169;28;20030;-78
2023/03/27 08:41:02;;;;;;;3.03;0.50;;;5.90;99.40;;;;;;5096342;28;20087;-80
2023/03/27 08:43:41;;;;;;;4.13;0.60;;;6.00;98.60;;;;;;5095838;28;20070;-78
2023/03/27 08:46:07;;;;;;;4.60;0.80;;;6.00;97.90;;;;;;5097763;28;20040;-79
2023/03/27 08:49:02;;;;;;;3.37;0.70;;;6.00;98.30;;;;;;5096612;28;20043;-79
2023/03/27 08:51:43;;;;;;;2.67;1.00;;;6.00;97.60;;;;;;5094829;28;20461;-80
2023/03/27 08:54:20;;;;;;;8.50;1.42;;;6.00;97.90;;;;;;5099045;28;20037;-79
2023/03/27 08:56:47;;;;;;;4.30;0.67;;;6.00;98.80;;;;;;5096113;28;20073;-79
2023/03/27 08:59:21;;;;;;;4.93;0.80;;;6.00;99.10;;;;;;5092892;28;20063;-78
2023/03/27 09:02:21;;;;;;;5.27;0.60;;;6.00;97.60;;;;;;5095707;28;20465;-79
2023/03/27 09:04:58;;;;;;;1.93;0.70;;;6.00;97.60;;;;;;5092257;28;20047;-78
2023/03/27 09:07:54;;;;;;;3.27;0.80;;;6.10;97.40;;;;;;5093834;28;20028;-79
2023/03/27 09:10:26;;;;;;;4.63;0.90;;;6.10;96.90;;;;;;5078624;28;20020;-77
2023/03/27 09:13:00;;;;;;;3.13;1.20;;;6.10;96.60;;;;;;5088794;28;20114;-78
2023/03/27 09:15:33;;;;;;;2.13;0.50;;;6.20;95.90;;;;;;5111437;28;20044;-78
2023/03/27 09:18:12;;;;;;;3.97;0.93;;;6.20;95.00;;;;;;5101010;28;20464;-78
2023/03/27 09:20:43;;;;;;;7.13;1.00;;;6.30;94.90;;;;;;5093901;28;20024;-77
2023/03/27 09:23:47;;;;;;;6.43;1.03;;;6.40;95.30;;;;;;5092805;28;20036;-77
2023/03/27 09:26:18;;;;;;;6.23;0.70;;;6.50;94.30;;;;;;5030398;28;20044;-78
2023/03/27 09:28:54;;;;;;;3.00;0.50;;;6.60;94.70;;;;;;5031135;28;20502;-79
2023/03/27 09:31:49;;;;;;;7.30;0.73;;;6.60;91.30;;;;;;5031167;28;20036;-79
2023/03/27 09:34:22;;;;;;;5.53;0.60;;;6.60;90.70;;;;;;5029820;28;20043;-80
2023/03/27 09:36:49;;;;;;;2.37;0.60;;;6.60;91.50;;;;;;5013916;28;20041;-80
2023/03/27 09:39:31;;;;;;;4.07;0.60;;;6.60;92.10;;;;;;5029772;28;20037;-80
2023/03/27 09:42:03;;;;;;;9.30;0.80;;;6.60;92.70;;;;;;5031567;28;20093;-80
2023/03/27 09:44:35;;;;;;;2.20;0.40;;;6.70;92.30;;;;;;5014837;28;20045;-80
2023/03/27 09:47:26;;;;;;;6.60;0.70;;;6.90;92.60;;;;;;5014523;28;20152;-80
2023/03/27 09:49:59;;;;;;;3.67;0.43;;;6.90;90.90;;;;;;5031393;28;20045;-80
2023/03/27 09:52:36;;;;;;;6.43;0.70;;;6.90;90.80;;;;;;5014129;28;20518;-78
2023/03/27 09:55:22;;;;;;;7.00;0.90;;;6.90;90.40;;;;;;5024948;28;20041;-80
2023/03/27 09:57:51;;;;;;;4.70;0.53;;;7.10;90.60;;;;;;5107604;28;20077;-80
2023/03/27 10:00:33;;;;;;;4.15;0.95;;;7.30;90.60;;;;;;5110431;28;20028;-81
2023/03/27 10:03:04;;;;;;;0.87;0.27;;;7.50;90.10;;;;;;5110485;28;20030;-82
2023/03/27 10:05:30;;;;;;;4.23;0.60;;;7.70;89.00;;;;;;5111041;28;20096;-81
2023/03/27 10:08:00;;;;;;;2.58;0.70;;;7.80;89.80;;;;;;5110247;28;20035;-80
2023/03/27 10:10:30;;;;;;;5.22;0.95;;;7.80;90.00;;;;;;5093276;28;20016;-80
2023/03/27 10:12:58;;;;;;;4.63;0.90;;;7.70;91.00;;;;;;5094540;28;20153;-81
2023/03/27 10:15:32;;;;;;;3.53;0.88;;;7.50;91.80;;;;;;5110248;28;20126;-79
2023/03/27 10:18:01;;;;;;;6.75;0.90;;;7.40;91.30;;;;;;5092032;28;20067;-81
2023/03/27 10:20:27;;;;;;;2.65;0.98;;;7.40;91.30;;;;;;5093388;28;20111;-81
2023/03/27 10:22:58;;;;;;;2.63;0.47;;;7.30;91.40;;;;;;5093052;28;20119;-80
2023/03/27 10:25:33;;;;;;;3.60;0.63;;;7.20;90.80;;;;;;5097101;28;20028;-77
2023/03/27 10:28:13;;;;;;;2.55;0.40;;;7.20;90.40;;;;;;5092611;28;20034;-80
2023/03/27 10:30:39;;;;;;;3.08;0.57;;;7.20;89.00;;;;;;5093258;28;20111;-80
2023/03/27 10:33:06;;;;;;;5.43;0.52;;;7.20;90.20;;;;;;5091975;28;20047;-79
2023/03/27 10:35:34;;;;;;;3.95;0.55;;;7.30;87.60;;;;;;5092682;28;20078;-79
2023/03/27 10:38:02;;;;;;;4.40;0.68;;;7.40;86.30;;;;;;5093896;28;20161;-80
2023/03/27 10:40:34;;;;;;;1.55;0.55;;;7.40;87.50;;;;;;5094208;28;20040;-79
2023/03/27 10:43:04;;;;;;;2.70;0.57;;;7.40;88.00;;;;;;5092608;28;20111;-79
2023/03/27 10:45:32;;;;;;;1.73;0.60;;;7.50;88.00;;;;;;5063166;28;20048;-79
2023/03/27 10:48:00;;;;;;;3.53;0.68;;;7.70;87.50;;;;;;5057332;28;20032;-80
2023/03/27 10:50:39;;;;;;;5.50;0.77;;;8.00;89.00;;;;;;5059807;28;20028;-79
2023/03/27 10:53:07;;;;;;;10.27;2.30;;;8.20;86.60;;;;;;5058921;28;20068;-81
2023/03/27 10:55:58;;;;;;;2.35;0.90;;;8.50;85.40;;;;;;5076737;28;20477;-79
2023/03/27 10:58:48;;;;;;;2.30;0.55;;;8.60;82.20;;;;;;5062832;28;20508;-78
2023/03/27 11:01:37;;;;;;;4.35;0.70;;;8.60;81.60;;;;;;5068669;28;20122;-79
2023/03/27 11:04:19;;;;;;;3.55;0.75;;;8.50;85.50;;;;;;5093256;28;20091;-79
2023/03/27 11:06:46;;;;;;;2.20;0.57;;;8.50;86.00;;;;;;5094344;28;20579;-79
2023/03/27 11:09:28;;;;;;;1.10;0.47;;;8.40;85.80;;;;;;5075875;28;20158;-80
2023/03/27 11:12:10;;;;;;;1.38;0.38;;;8.40;88.20;;;;;;5075039;28;20178;-82
2023/03/27 11:14:49;;;;;;;2.63;0.68;;;8.50;88.40;;;;;;5077000;28;20036;-79
2023/03/27 11:17:22;;;;;;;2.00;0.60;;;8.60;89.60;;;;;;5058396;28;20040;-80
2023/03/27 11:19:54;;;;;;;3.90;0.60;;;8.60;90.30;;;;;;5058141;28;20029;-80
2023/03/27 11:22:32;;;;;;;3.63;0.77;;;8.60;89.90;;;;;;5067572;28;20050;-80
2023/03/27 11:25:34;;;;;;;2.78;0.52;;;8.60;90.50;;;;;;5058427;28;20054;-79
2023/03/27 11:28:09;;;;;;;3.08;0.57;;;8.60;90.40;;;;;;5059500;28;20390;-80
2023/03/27 11:30:47;;;;;;;2.80;0.40;;;8.60;89.30;;;;;;5064293;28;20097;-80
2023/03/27 11:33:48;;;;;;;3.80;1.13;;;8.80;89.50;;;;;;5076438;28;20036;-80
2023/03/27 11:36:43;;;;;;;2.63;0.60;;;8.80;89.20;;;;;;5073798;28;20030;-80
2023/03/27 11:39:18;;;;;;;2.85;0.80;;;8.80;89.90;;;;;;5075593;28;20280;-78
2023/03/27 11:41:49;;;;;;;4.13;0.60;;;8.90;90.50;;;;;;5075775;28;20028;-79
2023/03/27 11:44:15;;;;;;;5.75;0.82;;;9.00;90.40;;;;;;5059679;28;20044;-78
2023/03/27 11:46:52;;;;;;;2.70;0.70;;;9.00;90.00;;;;;;5075366;28;20544;-78
2023/03/27 11:49:31;;;;;;;6.35;1.00;;;9.10;89.90;;;;;;5050153;28;20570;-78
2023/03/27 11:52:28;;;;;;;3.15;0.60;;;9.10;89.30;;;;;;5059724;28;20025;-78
2023/03/27 11:55:18;;;;;;;3.92;0.70;;;9.10;90.30;;;;;;5057767;28;20028;-79
2023/03/27 11:58:25;;;;;;;5.05;0.52;;;9.30;90.70;;;;;;5076243;28;20093;-79
2023/03/27 12:01:08;;;;;;;1.27;0.60;;;9.40;91.00;;;;;;5058278;28;20359;-80
2023/03/27 12:03:35;;;;;;;4.95;0.70;;;9.60;91.00;;;;;;5058572;28;20496;-79
2023/03/27 12:06:13;;;;;;;1.60;0.40;;;9.70;90.20;;;;;;5058422;28;20090;-81
2023/03/27 12:09:05;;;;;;;4.80;0.68;;;9.70;91.50;;;;;;5058223;28;20532;-79
2023/03/27 12:11:33;;;;;;;1.23;0.50;;;9.60;90.60;;;;;;5075872;28;20021;-79
2023/03/27 12:14:08;;;;;;;1.55;0.50;;;9.40;86.60;;;;;;5057578;28;20444;-80
2023/03/27 12:16:54;;;;;;;2.60;0.55;;;9.20;84.00;;;;;;5092601;28;20024;-79
2023/03/27 12:19:36;;;;;;;2.88;0.68;;;8.80;85.00;;;;;;5068267;28;20549;-82
2023/03/27 12:22:51;;;;;;;0.65;0.60;;;8.50;88.40;;;;;;5059161;28;20383;-80
2023/03/27 12:26:01;;;;;;;5.65;0.90;;;8.40;90.20;;;;;;5040065;28;20040;-80
2023/03/27 12:28:39;;;;;;;2.50;0.70;;;8.40;91.50;;;;;;5054349;28;20477;-81
2023/03/27 12:31:29;;;;;;;3.05;0.50;;;8.30;92.20;;;;;;5057009;28;20059;-81
2023/03/27 12:34:02;;;;;;;2.20;0.60;;;8.20;92.70;;;;;;5058069;28;20040;-81
2023/03/27 12:36:36;;;;;;;1.52;0.50;;;8.10;94.50;;;;;;5075201;28;20024;-81
2023/03/27 12:39:13;;;;;;;3.60;0.65;;;8.00;96.00;;;;;;5074846;28;20024;-80
2023/03/27 12:41:43;;;;;;;11.82;4.95;;;7.90;99.60;;;;;;5057729;28;20016;-81
2023/03/27 12:44:11;;;;;;;3.90;1.15;;;7.70;99.90;;;;;;5059700;28;20043;-81
2023/03/27 12:46:39;;;;;;;6.85;1.33;;;7.70;99.90;;;;;;5067584;28;20086;-79
2023/03/27 12:49:05;;;;;;;2.58;0.70;;;7.70;99.90;;;;;;5058962;28;20116;-77
2023/03/27 12:51:50;;;;;;;2.45;0.70;;;7.60;99.90;;;;;;5054341;28;20116;-77
2023/03/27 12:54:26;;;;;;;2.05;0.80;;;7.60;99.90;;;;;;5064573;28;20385;-76
2023/03/27 12:57:20;;;;;;;2.75;1.02;;;7.70;99.90;;;;;;5066194;28;20024;-77
2023/03/27 12:59:51;;;;;;;2.75;0.70;;;8.10;99.90;;;;;;5058606;28;20041;-76
2023/03/27 13:02:30;;;;;;;3.42;0.90;;;8.30;99.90;;;;;;5057943;28;20353;-76
2023/03/27 13:05:11;;;;;;;1.67;0.80;;;8.70;99.90;;;;;;5073837;28;20032;-76
2023/03/27 13:07:49;;;;;;;3.95;0.75;;;8.70;99.90;;;;;;5073443;28;20366;-78
2023/03/27 13:10:34;;;;;;;1.50;0.63;;;8.90;99.90;;;;;;5040973;28;20032;-78
2023/03/27 13:13:23;;;;;;;3.33;0.82;;;10.20;99.90;;;;;;5082736;28;20035;-82
2023/03/27 13:16:08;;;;;;;5.03;0.93;;;12.30;98.40;;;;;;5030005;28;20045;-81
2023/03/27 13:19:14;;;;;;;5.13;0.77;;;14.10;93.10;;;;;;5057099;28;20033;-81
2023/03/27 13:22:17;;;;;;;1.27;0.73;;;15.10;90.30;;;;;;5057543;28;20027;-82
2023/03/27 13:25:12;;;;;;;1.70;0.50;;;15.30;87.30;;;;;;5046281;28;20039;-79
2023/03/27 13:28:11;;;;;;;6.53;0.60;;;15.40;85.80;;;;;;4985836;28;20038;-81
2023/03/27 13:30:57;;;;;;;3.75;0.70;;;15.40;79.00;;;;;;5044877;28;20048;-81